Fort McMurray Airport
CYMM : rendu visible

Aérodrome :











RETROUVEZ-NOUS SUR...

 
LOGIN :

S'inscrire | Disclaimer

   EN    FR    IT 

 









Légende :    VFR   VFR Marginal   IFR   IFR Intensif   IFR Très Intensif
Visi : 
Plafond : 
>= 8 km
>= 3000ft
5 à 8 km
1000 à 3000 ft
1500m à 5 km
500 à 1000 ft
800 à 1500m
200 à 500 ft
< 800m
< 200 ft
Symboles :   Orages  Brouillard  Fortes neiges  Fortes précipitations  Vent > 20 kt






- Altitude de l'aérodrome : 1211 ft
- Code IATA : YMM


CYMM - Fort McMurray

DERNIER METAR :
  • 081243Z AUTO 31017G22KT 9SM -SN OVC043 M04/M10 A3003 RMK SLP193

METARs EXPIRÉS :
  • 081200Z AUTO 29016G22KT 9SM SCT038 OVC047 M04/M10 A3001 RMK SLP187
  • 081153Z AUTO 31016G23KT 9SM SCT039 OVC049 M04/M10 A3001 RMK SLP187
  • 081143Z AUTO 29015G20KT 9SM -SN FEW029 BKN035 OVC046 M04/M09 A3001 RMK SLP187
  • 081112Z AUTO 28014G20KT 9SM -SN FEW027 OVC046 M04/M09 A3000 RMK SLP185
  • 081000Z AUTO 29016G21KT 9SM BKN050 OVC180 M04/M10 A2998 RMK SLP178

TAF TAF CYMM
Valide du 08 à 13h jusqu'au 09 à 01h UTC


081238Z 0813/0901 32015G25KT P6SM OVC040
TEMPO 0813/0901 4SM -SN OVC020 RMK FCST BASED ON AUTO OBS. NXT FCST BY 081900Z



MET'MAP, la Météo Aéronautique d'un coup d'oeil ! - Copyright ORBIFLY Décembre 2007 - Disclaimer

ORBIFLY MET'MAP TEAM :

Programmation & Développement : Alexandra Zaïnal
Sur une idée originale de : Baudouin d'Aumeries
Assistance à la programmation : Marc-Olivier Méhu
Soutien technique & logistique : Manuel Goepfert

Contact : metmap@orbifly.com




SOURCES & CREDITS :

   NOAA       Earth
Advisory